Time;durP1;ratioP1;P1;durP2;ratioP2;P2;SDS_P1;SDS_P2;PMS_P1;PMS_P2;Temp;Humidity;BMP_temperature;BMP_pressure;BME280_temperature;BME280_humidity;BME280_pressure;Samples;Min_cycle;Max_cycle;Signal;HPM_P1;HPM_P2
2021/05/20 00:00:25;;;;;;;44.40;28.13;;;;;;;13.09;63.73;102121.72;5033516;28;20029;-83
2021/05/20 00:02:52;;;;;;;46.53;28.95;;;;;;;13.11;63.83;102119.06;5034602;28;20025;-83
2021/05/20 00:05:19;;;;;;;47.22;28.10;;;;;;;13.09;63.97;102120.84;5033749;28;20029;-83
2021/05/20 00:07:46;;;;;;;38.75;24.42;;;;;;;13.08;63.82;102119.97;5023027;28;20026;-82
2021/05/20 00:10:14;;;;;;;44.22;26.95;;;;;;;13.07;64.13;102122.63;5024020;28;20025;-83
2021/05/20 00:12:43;;;;;;;39.80;24.90;;;;;;;13.06;63.51;102120.84;5022649;28;20033;-83
2021/05/20 00:15:10;;;;;;;37.70;26.48;;;;;;;13.01;63.63;102128.00;5021467;28;20171;-80
2021/05/20 00:17:36;;;;;;;42.47;25.13;;;;;;;12.95;64.10;102135.16;5034099;28;20030;-82
2021/05/20 00:20:04;;;;;;;44.42;28.52;;;;;;;12.98;64.13;102136.91;5034449;28;20112;-83
2021/05/20 00:22:31;;;;;;;47.30;28.27;;;;;;;12.93;63.80;102133.41;5032529;28;20025;-82
2021/05/20 00:24:57;;;;;;;47.47;28.17;;;;;;;12.92;63.72;102140.50;5019924;28;20445;-82
2021/05/20 00:27:24;;;;;;;43.33;27.17;;;;;;;12.89;64.20;102134.34;5025307;28;20063;-82
2021/05/20 00:29:50;;;;;;;43.47;27.00;;;;;;;12.87;63.72;102141.44;5030965;28;20029;-82
2021/05/20 00:32:17;;;;;;;47.17;28.83;;;;;;;12.85;63.82;102133.47;5033207;28;20029;-82
2021/05/20 00:35:13;;;;;;;42.80;26.95;;;;;;;12.95;63.45;102129.84;5048252;22;20590;-88
2021/05/20 00:37:39;;;;;;;50.70;30.38;;;;;;;12.82;64.17;102138.81;5054165;28;20488;-87
2021/05/20 00:40:06;;;;;;;46.13;28.20;;;;;;;12.78;63.99;102131.75;5053904;28;20423;-86
2021/05/20 00:42:43;;;;;;;53.30;29.75;;;;;;;12.84;63.61;102133.50;5054189;28;20027;-87
2021/05/20 00:45:11;;;;;;;51.72;30.40;;;;;;;12.76;64.50;102134.44;5051292;28;20500;-87
2021/05/20 00:47:38;;;;;;;43.10;27.20;;;;;;;12.75;64.31;102150.41;5072843;28;20036;-86
2021/05/20 00:50:15;;;;;;;58.30;32.42;;;;;;;12.77;63.85;102151.25;5073221;28;20035;-86
2021/05/20 00:52:41;;;;;;;66.13;35.75;;;;;;;12.66;64.75;102146.06;5073254;28;20032;-87
2021/05/20 00:55:09;;;;;;;51.67;32.30;;;;;;;12.67;64.26;102145.13;5073971;28;20369;-87
2021/05/20 00:57:36;;;;;;;50.03;31.75;;;;;;;12.66;64.46;102147.81;5073938;28;20122;-86
2021/05/20 01:00:07;;;;;;;59.05;34.10;;;;;;;12.67;64.65;102147.78;5073903;28;20016;-86
2021/05/20 01:02:35;;;;;;;61.00;34.65;;;;;;;12.64;64.54;102158.47;5073711;28;20487;-87
2021/05/20 01:05:02;;;;;;;59.95;35.42;;;;;;;12.60;64.06;102154.94;5073798;28;20024;-86
2021/05/20 01:07:29;;;;;;;51.63;31.85;;;;;;;12.58;64.37;102156.72;5074003;28;20029;-86
2021/05/20 01:09:56;;;;;;;59.35;35.55;;;;;;;12.58;64.45;102156.72;5073642;28;20017;-87
2021/05/20 01:12:27;;;;;;;57.58;33.67;;;;;;;12.57;64.41;102155.00;5072328;28;20483;-87
2021/05/20 01:14:54;;;;;;;58.92;35.10;;;;;;;12.56;64.50;102161.19;5074640;28;20032;-87
2021/05/20 01:17:20;;;;;;;56.45;34.10;;;;;;;12.53;64.75;102158.53;5074508;28;20040;-87
2021/05/20 01:19:47;;;;;;;58.42;37.10;;;;;;;12.53;64.88;102161.19;5074440;28;20035;-87
2021/05/20 01:22:18;;;;;;;62.08;37.03;;;;;;;12.58;64.19;102164.69;5073962;28;20066;-87
2021/05/20 01:24:46;;;;;;;65.80;38.10;;;;;;;12.51;64.89;102168.31;5074842;28;20059;-87
2021/05/20 01:27:17;;;;;;;67.65;38.25;;;;;;;12.57;64.81;102164.72;5073994;28;20116;-88
2021/05/20 01:29:46;;;;;;;53.20;34.30;;;;;;;12.54;64.53;102160.31;5073929;28;20020;-86
2021/05/20 01:32:13;;;;;;;50.97;33.13;;;;;;;12.49;64.57;102166.56;5073786;28;20029;-87
2021/05/20 01:34:40;;;;;;;54.40;35.00;;;;;;;12.47;64.31;102158.56;5074676;28;20032;-87
2021/05/20 01:37:11;;;;;;;56.55;34.80;;;;;;;12.52;64.38;102158.56;5074836;28;20036;-87
2021/05/20 01:39:38;;;;;;;49.90;31.85;;;;;;;12.46;65.00;102160.38;5072080;28;20034;-87
2021/05/20 01:42:05;;;;;;;53.58;34.63;;;;;;;12.45;64.13;102160.38;5073190;28;20028;-87
2021/05/20 01:44:32;;;;;;;53.83;34.35;;;;;;;12.44;64.88;102161.28;5073156;28;20029;-86
2021/05/20 01:46:58;;;;;;;49.97;33.13;;;;;;;12.41;64.76;102158.63;5072915;28;20064;-86
2021/05/20 01:49:24;;;;;;;58.03;35.30;;;;;;;12.41;64.77;102163.94;5073091;28;20463;-87
2021/05/20 01:51:51;;;;;;;52.92;33.78;;;;;;;12.38;64.08;102163.97;5073411;28;20036;-87
2021/05/20 01:54:17;;;;;;;56.97;36.83;;;;;;;12.35;64.04;102161.31;5072854;28;20028;-86
2021/05/20 01:56:44;;;;;;;54.45;36.17;;;;;;;12.34;64.69;102163.09;5072942;28;20387;-86
2021/05/20 01:59:10;;;;;;;52.17;33.83;;;;;;;12.33;64.28;102160.47;5071821;28;20032;-86
2021/05/20 02:01:51;;;;;;;58.22;37.63;;;;;;;12.41;64.21;102163.94;5073299;28;20167;-87
2021/05/20 02:04:17;;;;;;;63.75;39.58;;;;;;;12.32;64.30;102164.88;5073404;28;20024;-86
2021/05/20 02:06:43;;;;;;;56.17;36.15;;;;;;;12.31;64.41;102163.09;5072880;28;20555;-86
2021/05/20 02:09:10;;;;;;;52.22;35.30;;;;;;;12.30;64.70;102167.56;5071715;28;20071;-85
2021/05/20 02:11:36;;;;;;;54.72;36.78;;;;;;;12.26;64.88;102171.13;5073164;28;20035;-86
2021/05/20 02:14:03;;;;;;;51.70;35.03;;;;;;;12.26;64.28;102159.59;5073386;28;20025;-86
2021/05/20 02:16:30;;;;;;;46.65;30.40;;;;;;;12.25;64.40;102164.03;5073317;28;20038;-86
2021/05/20 02:18:56;;;;;;;50.58;32.58;;;;;;;12.22;64.28;102158.72;5069463;28;20039;-86
2021/05/20 02:21:42;;;;;;;50.83;32.47;;;;;;;12.31;64.00;102157.78;5070664;28;20119;-86
2021/05/20 02:24:09;;;;;;;42.92;30.08;;;;;;;12.18;63.87;102162.31;5072384;28;20046;-86
2021/05/20 02:26:36;;;;;;;46.50;29.33;;;;;;;12.14;63.96;102157.91;5072509;28;20047;-86
2021/05/20 02:29:02;;;;;;;38.60;26.35;;;;;;;12.10;63.94;102165.00;5072686;28;20025;-86
2021/05/20 02:31:29;;;;;;;32.58;23.48;;;;;;;12.05;63.90;102161.50;5071330;28;20036;-86
2021/05/20 02:33:58;;;;;;;33.08;25.60;;;;;;;11.99;63.90;102156.22;5071605;28;20029;-86
2021/05/20 02:36:24;;;;;;;35.45;25.02;;;;;;;11.97;63.77;102156.22;5072264;28;20472;-86
2021/05/20 02:38:50;;;;;;;39.13;27.17;;;;;;;11.93;63.92;102159.75;5072758;28;20028;-85
2021/05/20 02:41:17;;;;;;;38.78;26.13;;;;;;;11.90;63.79;102156.22;5071935;28;20074;-86
2021/05/20 02:43:44;;;;;;;36.55;25.60;;;;;;;11.86;64.08;102155.34;5061911;28;20040;-86
2021/05/20 02:46:10;;;;;;;40.70;25.95;;;;;;;11.84;64.30;102161.53;5068047;28;20036;-85
2021/05/20 02:48:37;;;;;;;41.72;26.23;;;;;;;11.79;64.32;102153.63;5071979;28;20119;-87
2021/05/20 02:51:03;;;;;;;48.85;31.02;;;;;;;11.79;64.60;102151.84;5072488;28;20025;-86
2021/05/20 02:53:30;;;;;;;42.03;27.73;;;;;;;11.79;64.68;102150.97;5070287;28;20067;-87
2021/05/20 02:55:57;;;;;;;39.08;26.33;;;;;;;11.81;64.98;102144.75;5071401;28;20047;-85
2021/05/20 02:58:24;;;;;;;45.60;28.60;;;;;;;11.80;64.92;102150.94;5072248;28;20027;-82
2021/05/20 03:00:50;;;;;;;38.05;24.40;;;;;;;11.81;64.98;102147.41;5070861;28;20097;-86
2021/05/20 03:03:17;;;;;;;38.13;25.63;;;;;;;11.80;64.99;102148.28;5072201;28;20024;-86
2021/05/20 03:05:43;;;;;;;43.75;27.00;;;;;;;11.78;64.84;102143.88;5053958;28;20032;-86
2021/05/20 03:08:12;;;;;;;41.72;24.95;;;;;;;11.78;64.66;102149.19;5072297;28;20488;-85
2021/05/20 03:10:39;;;;;;;41.67;23.38;;;;;;;11.77;64.92;102147.41;5070646;28;20033;-87
2021/05/20 03:13:07;;;;;;;36.58;21.42;;;;;;;11.73;64.72;102141.25;5074596;28;20028;-85
2021/05/20 03:15:34;;;;;;;34.10;21.10;;;;;;;11.72;64.71;102147.44;5075874;28;20028;-82
2021/05/20 03:18:00;;;;;;;60.17;26.95;;;;;;;11.69;64.57;102147.47;5076084;28;20162;-85
2021/05/20 03:20:27;;;;;;;38.70;23.00;;;;;;;11.67;64.92;102153.66;5075766;28;20468;-86
2021/05/20 03:22:53;;;;;;;73.15;25.73;;;;;;;11.67;65.07;102143.03;5075836;28;20036;-87
2021/05/20 03:25:27;;;;;;;42.80;25.75;;;;;;;11.66;65.19;102142.16;5075584;28;20099;-86
2021/05/20 03:27:53;;;;;;;65.20;25.15;;;;;;;11.65;65.05;102151.91;5075546;28;20029;-85
2021/05/20 03:30:21;;;;;;;61.03;24.00;;;;;;;11.67;65.00;102148.34;5075494;28;20035;-82
2021/05/20 03:32:47;;;;;;;67.18;25.20;;;;;;;11.66;65.25;102150.09;5075588;28;20028;-86
2021/05/20 03:35:20;;;;;;;48.00;23.88;;;;;;;11.63;65.07;102153.66;5076019;28;20032;-86
2021/05/20 03:37:47;;;;;;;52.63;23.33;;;;;;;11.64;64.92;102149.25;5074051;28;20040;-81
2021/05/20 03:40:14;;;;;;;52.83;22.95;;;;;;;11.64;64.88;102155.44;5075277;28;20031;-86
2021/05/20 03:42:42;;;;;;;41.83;23.05;;;;;;;11.65;64.94;102157.19;5073752;28;20412;-85
2021/05/20 03:45:19;;;;;;;45.58;22.42;;;;;;;11.69;64.88;102160.72;5073465;28;20116;-86
2021/05/20 03:47:45;;;;;;;59.03;22.67;;;;;;;11.61;64.85;102160.78;5075064;28;20049;-86
2021/05/20 03:50:15;;;;;;;242.80;30.65;;;;;;;11.63;65.03;102164.28;5074834;28;20365;-86
2021/05/20 03:52:44;;;;;;;233.15;31.92;;;;;;;11.57;64.93;102153.69;5075191;28;20033;-85
2021/05/20 03:55:11;;;;;;;79.22;24.92;;;;;;;11.52;64.49;102152.81;5074743;28;20025;-86
2021/05/20 03:57:44;;;;;;;116.68;27.77;;;;;;;11.48;64.77;102153.72;5074943;28;20040;-87
2021/05/20 04:00:11;;;;;;;119.40;30.63;;;;;;;11.51;64.88;102159.00;5074679;28;20040;-86
2021/05/20 04:02:37;;;;;;;129.63;29.48;;;;;;;11.47;65.03;102162.56;5074816;28;20786;-86
2021/05/20 04:05:03;;;;;;;116.03;32.25;;;;;;;11.48;64.93;102164.34;5073831;28;20036;-86
2021/05/20 04:07:30;;;;;;;100.00;29.95;;;;;;;11.49;64.92;102163.44;5073850;28;20491;-86
2021/05/20 04:09:56;;;;;;;188.35;33.58;;;;;;;11.50;64.70;102157.22;5074792;28;20062;-83
2021/05/20 04:12:32;;;;;;;186.63;34.20;;;;;;;11.58;64.92;102160.75;5073247;28;20032;-85
2021/05/20 04:14:59;;;;;;;105.43;29.17;;;;;;;11.48;65.00;102159.03;5074963;28;20070;-86
2021/05/20 04:17:26;;;;;;;134.45;30.98;;;;;;;11.52;64.89;102162.56;5056457;28;20043;-85
2021/05/20 04:19:53;;;;;;;185.15;37.53;;;;;;;11.54;65.01;102153.69;5074811;28;20035;-85
2021/05/20 04:22:22;;;;;;;152.68;36.15;;;;;;;11.56;65.26;102162.53;5073111;28;20053;-84
2021/05/20 04:24:50;;;;;;;142.30;36.08;;;;;;;11.61;65.14;102171.38;5074575;28;20479;-84
2021/05/20 04:27:16;;;;;;;109.68;34.72;;;;;;;11.68;65.26;102164.28;5074400;28;20036;-84
2021/05/20 04:29:42;;;;;;;224.82;41.35;;;;;;;11.73;65.21;102170.44;5074449;28;20020;-84
2021/05/20 04:32:08;;;;;;;64.88;32.67;;;;;;;11.77;65.70;102160.69;5074595;28;20422;-85
2021/05/20 04:34:35;;;;;;;122.95;37.20;;;;;;;11.81;65.38;102160.69;5055996;28;20057;-85
2021/05/20 04:37:06;;;;;;;279.02;41.67;;;;;;;11.87;65.17;102162.41;5074271;28;20032;-86
2021/05/20 04:39:33;;;;;;;112.13;35.58;;;;;;;11.91;65.19;102153.56;5073771;28;20036;-85
2021/05/20 04:42:00;;;;;;;91.97;30.90;;;;;;;11.97;65.09;102153.56;5073153;28;20484;-84
2021/05/20 04:44:26;;;;;;;126.95;36.83;;;;;;;12.02;65.00;102145.56;5074040;28;20060;-82
2021/05/20 04:46:52;;;;;;;107.80;30.65;;;;;;;12.03;65.29;102154.44;5074018;28;20372;-80
2021/05/20 04:49:18;;;;;;;89.90;33.03;;;;;;;12.11;65.04;102150.84;5072891;28;20028;-86
2021/05/20 04:51:45;;;;;;;96.53;30.63;;;;;;;12.16;65.08;102153.44;5072846;28;20379;-86
2021/05/20 04:54:11;;;;;;;96.28;28.88;;;;;;;12.19;65.15;102148.13;5074168;28;20056;-82
2021/05/20 04:56:38;;;;;;;121.18;32.92;;;;;;;12.26;65.09;102149.88;5072971;28;20029;-84
2021/05/20 04:59:05;;;;;;;103.20;31.02;;;;;;;12.34;65.31;102156.91;5074230;28;20066;-85
2021/05/20 05:01:32;;;;;;;77.00;26.23;;;;;;;12.36;64.79;102155.13;5073335;28;20028;-86
2021/05/20 05:03:59;;;;;;;69.80;26.30;;;;;;;12.40;64.63;102163.06;5074172;28;20063;-85
2021/05/20 05:06:26;;;;;;;82.18;31.20;;;;;;;12.44;64.77;102170.13;5073834;28;20036;-84
2021/05/20 05:08:52;;;;;;;68.47;33.63;;;;;;;12.48;64.75;102165.66;5073596;28;20029;-85
2021/05/20 05:11:18;;;;;;;72.80;35.08;;;;;;;12.55;65.00;102162.09;5073642;28;20070;-86
2021/05/20 05:13:44;;;;;;;65.85;35.92;;;;;;;12.61;64.79;102162.03;5073321;28;20115;-85
2021/05/20 05:16:10;;;;;;;60.97;31.20;;;;;;;12.66;65.12;102162.00;5073240;28;20021;-82
2021/05/20 05:18:38;;;;;;;69.25;30.48;;;;;;;12.70;64.24;102165.53;5073102;28;20033;-86
2021/05/20 05:21:04;;;;;;;82.55;32.17;;;;;;;12.71;64.24;102168.19;5063543;28;20124;-86
2021/05/20 05:23:30;;;;;;;72.07;28.02;;;;;;;12.77;64.27;102165.47;5068978;28;20021;-85
2021/05/20 05:25:56;;;;;;;59.80;25.33;;;;;;;12.83;64.42;102166.31;5069106;28;20053;-86
2021/05/20 05:28:22;;;;;;;62.65;26.33;;;;;;;12.86;63.79;102166.25;5071403;28;20101;-86
2021/05/20 05:30:49;;;;;;;44.60;22.92;;;;;;;12.89;64.30;102167.13;5072011;28;20039;-85
2021/05/20 05:33:15;;;;;;;42.60;23.67;;;;;;;12.94;64.00;102159.97;5071861;28;20029;-87
2021/05/20 05:35:41;;;;;;;45.78;24.13;;;;;;;12.93;64.40;102163.56;5073537;28;20115;-86
2021/05/20 05:38:14;;;;;;;50.72;25.48;;;;;;;13.02;63.99;102165.25;5072196;28;20032;-86
2021/05/20 05:40:40;;;;;;;51.10;25.52;;;;;;;13.06;63.78;102158.09;5072262;28;20029;-84
2021/05/20 05:43:06;;;;;;;53.40;28.38;;;;;;;13.14;64.41;102172.22;5055116;28;20040;-88
2021/05/20 05:45:33;;;;;;;94.82;33.20;;;;;;;13.17;63.97;102166.91;5072172;28;20032;-89
2021/05/20 05:47:59;;;;;;;73.78;36.10;;;;;;;13.24;63.75;102173.03;5068759;28;20025;-90
2021/05/20 05:50:27;;;;;;;67.68;33.80;;;;;;;13.32;64.04;102175.59;5069514;28;20025;-88
2021/05/20 05:52:53;;;;;;;65.28;35.00;;;;;;;13.43;63.98;102176.41;5072450;28;20027;-89
2021/05/20 05:55:19;;;;;;;65.60;32.00;;;;;;;13.48;63.81;102177.25;5071742;28;20557;-82
2021/05/20 05:57:45;;;;;;;62.17;29.42;;;;;;;13.56;64.26;102178.03;5072888;28;20502;-89
2021/05/20 06:00:13;;;;;;;70.68;29.48;;;;;;;13.61;63.99;102178.00;5072130;28;20499;-90
2021/05/20 06:02:39;;;;;;;109.18;28.05;;;;;;;13.56;64.26;102170.06;5072565;28;20038;-87
2021/05/20 06:05:06;;;;;;;140.45;31.08;;;;;;;13.62;64.19;102178.88;5068194;28;20032;-86
2021/05/20 06:07:35;;;;;;;81.45;28.80;;;;;;;13.64;63.78;102167.31;5063391;28;20055;-88
2021/05/20 06:10:19;;;;;;;76.63;26.65;;;;;;;13.78;63.90;102174.25;5073766;28;20029;-85
2021/05/20 06:12:45;;;;;;;80.50;31.60;;;;;;;13.82;63.61;102170.63;5045109;28;20100;-84
2021/05/20 06:15:12;;;;;;;116.90;29.08;;;;;;;13.89;63.61;102178.56;5070035;28;20033;-90
2021/05/20 06:17:38;;;;;;;97.00;30.98;;;;;;;13.99;63.88;102179.31;5056107;28;20021;-89
2021/05/20 06:20:07;;;;;;;63.85;32.15;;;;;;;13.98;64.11;102179.31;5063476;28;20021;-90
2021/05/20 06:22:34;;;;;;;75.90;31.90;;;;;;;14.02;64.40;102181.06;5070382;28;20029;-91
2021/05/20 06:25:00;;;;;;;69.80;31.23;;;;;;;14.03;64.25;102180.16;5073055;28;20029;-90
2021/05/20 06:27:27;;;;;;;95.30;34.28;;;;;;;14.15;64.38;102180.00;5073515;28;20036;-90
2021/05/20 06:29:54;;;;;;;112.55;37.80;;;;;;;14.21;64.75;102182.56;5039258;28;20119;-87
2021/05/20 06:32:21;;;;;;;71.00;34.20;;;;;;;14.38;64.51;102192.09;5072415;28;20036;-90
2021/05/20 06:34:47;;;;;;;93.30;37.00;;;;;;;14.56;64.36;102188.31;5073419;28;20506;-90
2021/05/20 06:37:14;;;;;;;73.75;37.40;;;;;;;14.69;64.18;102191.69;5072854;28;20041;-90
2021/05/20 06:39:41;;;;;;;70.47;34.58;;;;;;;14.79;64.24;102185.31;5070068;28;20079;-90
2021/05/20 06:42:10;;;;;;;72.10;37.13;;;;;;;14.91;63.99;102188.69;5059130;28;20021;-95
2021/05/20 06:44:38;;;;;;;82.75;38.65;;;;;;;15.00;64.20;102185.84;5067068;28;20065;-93
2021/05/20 06:47:04;;;;;;;74.88;37.28;;;;;;;15.18;63.99;102184.66;5073043;28;20043;-87
2021/05/20 06:49:31;;;;;;;78.10;41.45;;;;;;;15.28;63.95;102180.91;5076636;28;20487;-88
2021/05/20 06:51:57;;;;;;;85.38;45.95;;;;;;;15.40;63.77;102185.13;5076252;28;20021;-87
2021/05/20 06:54:24;;;;;;;91.22;50.70;;;;;;;15.47;63.60;102186.78;5076054;28;20059;-88
2021/05/20 06:57:08;;;;;;;88.05;49.50;;;;;;;15.55;63.13;102183.09;5076198;28;20036;-87
2021/05/20 07:00:07;;;;;;;73.57;43.55;;;;;;;15.64;63.19;102180.25;5061438;28;20383;-87
2021/05/20 07:02:22;;;;;;;71.03;41.67;;;;;;;15.73;63.01;102188.06;5075503;28;20040;-89
2021/05/20 07:05:01;;;;;;;79.35;45.65;;;;;;;15.87;62.36;102186.94;5206902;22;20037;-88
2021/05/20 07:07:29;;;;;;;66.93;41.33;;;;;;;15.89;62.49;102175.31;5052944;28;20064;-90
2021/05/20 07:09:56;;;;;;;72.75;44.67;;;;;;;15.94;62.46;102180.56;5055312;28;20088;-89
2021/05/20 07:12:22;;;;;;;84.63;53.05;;;;;;;16.04;62.36;102182.13;5054019;28;20033;-85
2021/05/20 07:14:50;;;;;;;66.40;42.92;;;;;;;15.80;62.03;102184.38;5074794;28;20029;-96
2021/05/20 07:17:30;;;;;;;61.05;41.83;;;;;;;15.94;61.17;102176.09;5075038;28;20047;-95
2021/05/20 07:19:56;;;;;;;59.70;39.75;;;;;;;16.02;61.46;102175.91;5077940;28;20075;-89
2021/05/20 07:22:23;;;;;;;62.90;39.92;;;;;;;16.10;61.31;102173.97;5075988;28;20111;-90
2021/05/20 07:24:49;;;;;;;63.28;40.20;;;;;;;16.21;60.78;102167.50;5075344;28;20348;-90
2021/05/20 07:27:19;;;;;;;52.92;36.72;;;;;;;16.29;60.64;102160.19;5073417;28;20052;-92
2021/05/20 07:29:45;;;;;;;55.58;38.45;;;;;;;16.27;60.85;102162.00;5073957;28;20028;-90
2021/05/20 07:32:17;;;;;;;51.95;36.45;;;;;;;16.28;60.83;102158.44;5072900;28;20099;-89
2021/05/20 07:34:44;;;;;;;52.97;36.35;;;;;;;16.29;60.83;102154.84;5072424;28;20024;-93
2021/05/20 07:37:10;;;;;;;53.17;35.38;;;;;;;16.29;61.14;102149.50;5074405;28;20380;-93
2021/05/20 07:39:36;;;;;;;43.17;33.33;;;;;;;16.44;60.66;102153.59;5073136;28;20020;-84
2021/05/20 07:42:03;;;;;;;43.70;32.03;;;;;;;16.37;60.87;102152.84;5074683;28;20028;-88
2021/05/20 07:44:30;;;;;;;39.13;28.40;;;;;;;16.50;60.16;102148.97;5071650;28;20031;-89
2021/05/20 07:46:57;;;;;;;35.90;26.38;;;;;;;16.54;59.91;102146.25;5067187;28;20090;-88
2021/05/20 07:49:25;;;;;;;38.80;28.80;;;;;;;16.52;59.76;102140.91;5055583;28;20079;-84
2021/05/20 07:51:52;;;;;;;35.47;24.65;;;;;;;16.59;59.28;102138.97;5056229;28;20033;-84
2021/05/20 07:54:22;;;;;;;29.20;21.33;;;;;;;16.54;59.11;102143.56;5063655;28;20029;-91
2021/05/20 07:56:48;;;;;;;28.15;20.65;;;;;;;16.54;59.06;102138.22;5069229;28;20111;-90
2021/05/20 07:59:15;;;;;;;29.67;19.17;;;;;;;16.63;58.68;102135.31;5064687;28;20058;-90
2021/05/20 08:01:51;;;;;;;27.45;19.92;;;;;;;16.57;58.33;102133.66;5075209;28;20020;-89
2021/05/20 08:04:24;;;;;;;31.13;20.02;;;;;;;16.63;58.09;102133.50;5062674;28;20144;-91
2021/05/20 08:06:55;;;;;;;26.60;18.65;;;;;;;16.72;57.46;102131.50;5074565;28;20433;-87
2021/05/20 08:09:27;;;;;;;24.42;18.85;;;;;;;16.73;57.07;102131.47;5075183;28;20108;-83
2021/05/20 08:11:54;;;;;;;19.92;15.38;;;;;;;16.78;56.82;102132.22;5071762;28;20032;-85
2021/05/20 08:14:20;;;;;;;22.65;16.67;;;;;;;16.78;56.49;102134.91;5070690;28;20472;-85
2021/05/20 08:16:47;;;;;;;23.23;16.75;;;;;;;16.88;56.52;102129.34;5075342;28;20035;-89
2021/05/20 08:19:14;;;;;;;18.38;14.13;;;;;;;16.92;56.14;102117.66;5074519;28;20062;-90
2021/05/20 08:21:41;;;;;;;19.88;14.98;;;;;;;16.98;55.70;102114.81;5075094;28;20047;-82
2021/05/20 08:24:08;;;;;;;18.63;14.80;;;;;;;17.05;55.45;102113.72;5074346;28;20031;-90
2021/05/20 08:26:34;;;;;;;21.02;16.08;;;;;;;17.17;55.44;102108.97;5056395;28;21091;-88
2021/05/20 08:29:00;;;;;;;19.20;12.20;;;;;;;17.13;54.80;102105.47;5075691;28;20367;-82
2021/05/20 08:31:29;;;;;;;20.73;15.20;;;;;;;17.25;54.57;102104.28;5074251;28;20028;-82
2021/05/20 08:33:56;;;;;;;14.88;12.35;;;;;;;17.45;54.01;102111.75;5074324;28;20028;-89
2021/05/20 08:36:26;;;;;;;18.15;12.57;;;;;;;17.50;53.31;102096.41;5073258;28;20357;-86
2021/05/20 08:38:52;;;;;;;19.85;13.85;;;;;;;17.61;53.27;102096.09;5074697;28;20074;-87
2021/05/20 08:41:21;;;;;;;16.33;11.23;;;;;;;17.78;52.39;102101.84;5072910;28;20024;-89
2021/05/20 08:43:48;;;;;;;16.83;10.52;;;;;;;17.93;52.07;102099.59;5070059;28;20036;-86
2021/05/20 08:46:23;;;;;;;14.85;11.93;;;;;;;18.00;51.85;102098.53;5070656;28;20025;-88
2021/05/20 08:48:50;;;;;;;12.25;10.50;;;;;;;18.13;52.01;102092.78;5073768;28;20387;-89
2021/05/20 08:51:17;;;;;;;12.63;10.05;;;;;;;18.21;51.01;102096.09;5073707;28;20455;-87
2021/05/20 08:53:44;;;;;;;13.88;11.30;;;;;;;18.29;50.85;102094.03;5073450;28;20055;-81
2021/05/20 08:56:11;;;;;;;15.30;11.85;;;;;;;18.43;50.99;102091.78;5067284;28;20470;-82
2021/05/20 08:58:38;;;;;;;17.88;12.50;;;;;;;18.61;50.61;102092.09;5059003;28;20067;-85
2021/05/20 09:01:05;;;;;;;16.08;11.32;;;;;;;18.67;50.21;102094.56;5064975;28;20029;-83
2021/05/20 09:03:31;;;;;;;15.88;12.82;;;;;;;18.69;50.72;102090.03;5071837;28;20103;-81
2021/05/20 09:06:04;;;;;;;15.38;12.75;;;;;;;18.78;50.44;102080.78;5073169;28;20028;-82
2021/05/20 09:08:33;;;;;;;18.08;12.35;;;;;;;18.96;50.49;102076.59;5073382;28;20060;-82
2021/05/20 09:11:01;;;;;;;16.10;11.05;;;;;;;18.96;50.45;102083.78;5061140;28;20463;-83
2021/05/20 09:13:36;;;;;;;15.25;10.55;;;;;;;19.13;47.86;102081.38;5073280;28;20032;-83
2021/05/20 09:16:13;;;;;;;13.93;10.15;;;;;;;19.23;45.67;102084.59;5061320;28;20031;-80
2021/05/20 09:18:41;;;;;;;16.52;12.10;;;;;;;19.25;47.41;102080.03;5067964;28;20020;-88
2021/05/20 09:21:08;;;;;;;13.68;9.75;;;;;;;19.38;47.92;102073.25;5066301;28;20434;-81
2021/05/20 09:23:45;;;;;;;15.85;10.57;;;;;;;19.36;46.74;102067.06;5061111;28;20979;-79
2021/05/20 09:26:11;;;;;;;14.02;9.30;;;;;;;19.43;47.28;102066.81;5063549;28;20104;-80
2021/05/20 09:28:41;;;;;;;14.27;11.63;;;;;;;19.48;47.25;102064.88;5066165;28;20375;-81
2021/05/20 09:31:10;;;;;;;16.35;12.73;;;;;;;19.56;47.08;102062.75;5069691;28;20751;-80
2021/05/20 09:33:49;;;;;;;17.13;12.38;;;;;;;19.57;46.64;102056.44;5073652;28;20062;-81
2021/05/20 09:36:21;;;;;;;13.35;11.38;;;;;;;19.79;46.22;102056.47;5072824;28;20093;-82
2021/05/20 09:38:47;;;;;;;14.85;11.07;;;;;;;19.73;46.45;102048.66;5072129;28;20497;-83
2021/05/20 09:41:19;;;;;;;17.52;12.00;;;;;;;19.77;45.72;102050.28;5072697;28;20036;-84
2021/05/20 09:43:46;;;;;;;13.85;11.00;;;;;;;19.97;46.04;102052.19;5072538;28;20052;-82
2021/05/20 09:46:16;;;;;;;14.73;9.27;;;;;;;20.01;45.58;102045.78;5062386;28;20056;-83
2021/05/20 09:48:44;;;;;;;14.65;9.75;;;;;;;19.95;44.48;102047.81;5064189;28;20070;-84
2021/05/20 09:54:05;;;;;;;11.55;7.45;;;;;;;19.90;43.62;102034.59;5068939;28;20440;-84
2021/05/20 09:59:15;;;;;;;10.57;8.50;;;;;;;20.16;42.95;102040.69;5107816;27;20375;-87
2021/05/20 10:01:43;;;;;;;58.53;31.95;;;;;;;20.24;42.68;102033.19;5092007;28;20081;-86
2021/05/20 10:04:27;;;;;;;11.48;9.50;;;;;;;20.25;42.06;102031.34;5109053;28;20473;-84
2021/05/20 10:06:54;;;;;;;10.52;8.27;;;;;;;20.40;41.52;102029.81;5095028;28;20036;-87
2021/05/20 10:09:20;;;;;;;11.65;7.35;;;;;;;20.54;40.63;102030.13;5089924;28;20036;-88
2021/05/20 10:11:46;;;;;;;10.35;7.13;;;;;;;20.71;40.17;102026.75;5089555;28;20070;-81
2021/05/20 10:14:12;;;;;;;11.07;6.80;;;;;;;20.68;40.47;102016.06;5089404;28;20028;-80
2021/05/20 10:16:39;;;;;;;12.50;7.88;;;;;;;20.63;40.94;102018.09;5089130;28;20027;-88
2021/05/20 10:19:06;;;;;;;12.82;8.35;;;;;;;20.78;40.43;102012.03;5089217;28;20029;-86
2021/05/20 10:21:33;;;;;;;11.15;7.22;;;;;;;20.92;39.90;102006.06;5089147;28;20486;-87
2021/05/20 10:23:59;;;;;;;11.82;6.82;;;;;;;20.85;39.51;102002.75;5088938;28;20028;-88
2021/05/20 10:26:26;;;;;;;9.60;6.90;;;;;;;21.01;39.67;101997.53;5088625;28;20021;-87
2021/05/20 10:28:52;;;;;;;8.82;6.05;;;;;;;21.12;39.39;101994.34;5090059;28;20036;-88
2021/05/20 10:31:19;;;;;;;11.95;8.18;;;;;;;21.22;39.60;101994.81;5088117;28;20032;-91
2021/05/20 10:33:46;;;;;;;11.43;7.35;;;;;;;21.26;39.05;101990.13;5087354;28;20024;-89
2021/05/20 10:36:29;;;;;;;12.55;7.40;;;;;;;21.43;39.08;101986.63;5089813;28;20033;-89
2021/05/20 10:39:41;;;;;;;12.60;7.50;;;;;;;21.33;39.82;101992.47;5098563;28;20039;-89
2021/05/20 10:42:07;;;;;;;12.50;8.63;;;;;;;21.20;39.55;101985.03;5087767;28;20088;-84
2021/05/20 10:44:33;;;;;;;12.35;8.57;;;;;;;21.33;39.49;101970.91;5088329;28;20037;-87
2021/05/20 10:47:02;;;;;;;11.02;8.27;;;;;;;21.50;39.27;101982.72;5086235;28;20028;-87
2021/05/20 10:55:16;;;;;;;14.10;9.45;;;;;;;21.41;39.18;101961.56;5106943;27;20366;-81
2021/05/20 10:58:02;;;;;;;12.80;9.43;;;;;;;21.58;39.13;101961.69;5104164;28;20128;-80
2021/05/20 11:03:10;;;;;;;8.25;6.50;;;;;;;21.60;38.63;101953.50;5090132;27;20371;-82
2021/05/20 11:11:07;;;;;;;8.18;5.65;;;;;;;21.37;39.46;101946.50;5110469;27;20359;-81
2021/05/20 11:13:45;;;;;;;8.85;5.45;;;;;;;21.46;38.07;101928.06;5096585;28;20032;-80
2021/05/20 11:25:09;;;;;;;5.78;4.05;;;;;;;21.82;37.21;101918.25;5041094;28;20412;-83
2021/05/20 11:27:35;;;;;;;6.15;3.70;;;;;;;21.62;37.12;101901.25;5001496;28;20040;-81
2021/05/20 11:30:01;;;;;;;5.13;3.78;;;;;;;21.71;36.96;101899.91;5023131;28;20028;-82
2021/05/20 11:32:31;;;;;;;5.53;3.45;;;;;;;21.98;37.31;101896.75;5021431;28;20095;-81
2021/05/20 11:35:34;;;;;;;6.78;3.47;;;;;;;21.87;35.17;101886.53;4974248;28;20180;-81
2021/05/20 11:38:00;;;;;;;;;;;;;;;21.98;36.82;101897.63;4977087;28;20073;-81
2021/05/20 11:46:25;;;;;;;4.70;3.65;;;;;;;21.98;34.55;101880.56;4977700;27;3715443;-79
2021/05/20 11:49:00;;;;;;;5.57;3.60;;;;;;;22.11;36.25;101875.41;5118310;28;20032;-76